createdAt,value
2024-04-24T00:00:14.759Z,5.27
2024-04-24T00:01:14.833Z,5.06
2024-04-24T00:02:14.806Z,5.15
2024-04-24T00:03:14.801Z,5.03
2024-04-24T00:04:14.795Z,5.00
2024-04-24T00:05:14.793Z,5.01
2024-04-24T00:06:14.751Z,5.04
2024-04-24T00:07:14.775Z,5.11
2024-04-24T00:08:14.796Z,5.27
2024-04-24T00:09:14.718Z,5.32
2024-04-24T00:10:14.721Z,5.30
2024-04-24T00:11:14.745Z,5.16
2024-04-24T00:12:14.709Z,5.16
2024-04-24T00:13:14.684Z,5.18
2024-04-24T00:14:14.727Z,5.19
2024-04-24T00:15:14.728Z,5.22
2024-04-24T00:16:14.690Z,5.21
2024-04-24T00:17:14.764Z,5.25
2024-04-24T00:18:14.838Z,5.37
2024-04-24T00:19:14.654Z,5.40
2024-04-24T00:20:14.674Z,5.62
2024-04-24T00:21:14.631Z,5.48
2024-04-24T00:22:14.637Z,5.52
2024-04-24T00:23:14.835Z,5.55
2024-04-24T00:24:14.609Z,5.69
2024-04-24T00:25:15.635Z,5.65
2024-04-24T00:26:14.659Z,5.77
2024-04-24T00:27:14.597Z,5.66
2024-04-24T00:28:14.589Z,5.80
2024-04-24T00:29:14.724Z,5.77
2024-04-24T00:30:14.644Z,5.90
2024-04-24T00:31:14.565Z,5.88
2024-04-24T00:32:14.591Z,5.77
2024-04-24T00:33:14.713Z,5.90
2024-04-24T00:34:14.681Z,5.79
2024-04-24T00:35:14.669Z,5.80
2024-04-24T00:36:14.616Z,5.87
2024-04-24T00:37:14.529Z,5.87
2024-04-24T00:38:14.591Z,5.85
2024-04-24T00:39:14.537Z,5.72
2024-04-24T00:40:14.571Z,5.69
2024-04-24T00:41:14.574Z,5.67
2024-04-24T00:42:14.515Z,5.55
2024-04-24T00:43:14.518Z,5.58
2024-04-24T00:44:14.597Z,5.51
2024-04-24T00:45:14.530Z,5.41
2024-04-24T00:46:14.515Z,5.47
2024-04-24T00:47:14.610Z,5.39
2024-04-24T00:48:14.589Z,5.25
2024-04-24T00:49:14.464Z,5.30
2024-04-24T00:50:14.560Z,5.34
2024-04-24T00:51:14.502Z,5.29
2024-04-24T00:52:14.470Z,5.33
2024-04-24T00:53:14.484Z,5.44
2024-04-24T00:54:14.471Z,5.54
2024-04-24T00:55:14.446Z,5.58
2024-04-24T00:56:14.583Z,5.58
2024-04-24T00:57:14.427Z,5.67
2024-04-24T00:58:14.414Z,5.59
2024-04-24T00:59:15.460Z,5.72
2024-04-24T01:00:14.402Z,5.66
2024-04-24T01:01:14.422Z,5.66
2024-04-24T01:02:14.472Z,5.58
2024-04-24T01:03:15.440Z,5.54
2024-04-24T01:04:14.458Z,5.57
2024-04-24T01:05:14.431Z,5.66
2024-04-24T01:06:14.453Z,5.67
2024-04-24T01:07:14.478Z,5.73
2024-04-24T01:08:15.376Z,5.79
2024-04-24T01:09:14.368Z,5.69
2024-04-24T01:10:14.368Z,5.77
2024-04-24T01:11:14.421Z,5.72
2024-04-24T01:12:14.339Z,5.57
2024-04-24T01:13:14.384Z,5.65
2024-04-24T01:14:14.364Z,5.66
2024-04-24T01:15:14.335Z,5.66
2024-04-24T01:16:14.355Z,5.57
2024-04-24T01:17:14.377Z,5.59
2024-04-24T01:18:14.395Z,5.30
2024-04-24T01:19:14.317Z,5.03
2024-04-24T01:20:14.313Z,4.91
2024-04-24T01:21:14.334Z,5.09
2024-04-24T01:22:14.277Z,5.12
2024-04-24T01:23:14.350Z,5.11
2024-04-24T01:24:14.395Z,5.01
2024-04-24T01:25:14.271Z,5.09
2024-04-24T01:26:14.371Z,5.14
2024-04-24T01:27:14.260Z,5.14
2024-04-24T01:28:14.265Z,5.15
2024-04-24T01:29:14.327Z,5.30
2024-04-24T01:30:14.257Z,5.36
2024-04-24T01:31:14.259Z,5.29
2024-04-24T01:32:14.365Z,5.19
2024-04-24T01:33:14.343Z,5.25
2024-04-24T01:34:14.233Z,5.25
2024-04-24T01:35:14.241Z,5.34
2024-04-24T01:36:14.219Z,5.41
2024-04-24T01:37:14.220Z,5.50
2024-04-24T01:38:14.242Z,5.55
2024-04-24T01:39:14.184Z,5.57
2024-04-24T01:40:14.341Z,5.67
2024-04-24T01:41:14.307Z,5.75
2024-04-24T01:42:14.163Z,5.47
2024-04-24T01:43:14.182Z,5.29
2024-04-24T01:44:14.206Z,5.41
2024-04-24T01:45:14.175Z,5.33
2024-04-24T01:46:14.221Z,5.55
2024-04-24T01:47:14.268Z,5.59
2024-04-24T01:48:14.210Z,5.65
2024-04-24T01:49:14.149Z,5.67
2024-04-24T01:50:14.243Z,5.61
2024-04-24T01:51:14.196Z,5.77
2024-04-24T01:52:14.130Z,5.87
2024-04-24T01:53:14.170Z,5.76
2024-04-24T01:54:14.104Z,5.84
2024-04-24T01:55:14.130Z,5.85
2024-04-24T01:56:14.147Z,5.95
2024-04-24T01:57:14.124Z,5.87
2024-04-24T01:58:14.109Z,5.90
2024-04-24T01:59:14.153Z,5.84
2024-04-24T02:00:14.076Z,5.77
2024-04-24T02:01:14.211Z,5.91
2024-04-24T02:02:14.137Z,5.79
2024-04-24T02:03:14.121Z,5.80
2024-04-24T02:04:14.089Z,5.80
2024-04-24T02:05:14.052Z,5.84
2024-04-24T02:06:14.062Z,5.93
2024-04-24T02:07:14.092Z,5.93
2024-04-24T02:08:14.222Z,5.91
2024-04-24T02:09:14.035Z,5.85
2024-04-24T02:10:14.033Z,6.06
2024-04-24T02:11:14.038Z,6.05
2024-04-24T02:12:16.671Z,6.12
2024-04-24T02:13:15.003Z,6.24
2024-04-24T02:14:14.086Z,6.25
2024-04-24T02:15:14.013Z,6.24
2024-04-24T02:16:13.987Z,6.24
2024-04-24T02:17:14.041Z,6.18
2024-04-24T02:18:14.049Z,6.30
2024-04-24T02:19:13.988Z,6.43
2024-04-24T02:20:13.996Z,6.34
2024-04-24T02:21:13.976Z,6.45
2024-04-24T02:22:13.947Z,6.42
2024-04-24T02:23:13.970Z,6.45
2024-04-24T02:24:13.980Z,6.42
2024-04-24T02:25:13.938Z,6.52
2024-04-24T02:26:13.970Z,6.38
2024-04-24T02:27:13.923Z,6.64
2024-04-24T02:28:13.923Z,6.53
2024-04-24T02:29:13.967Z,6.43
2024-04-24T02:30:13.911Z,6.52
2024-04-24T02:31:13.920Z,6.43
2024-04-24T02:32:13.997Z,6.56
2024-04-24T02:33:14.134Z,6.55
2024-04-24T02:34:13.906Z,6.56
2024-04-24T02:35:14.024Z,6.64
2024-04-24T02:36:13.868Z,6.60
2024-04-24T02:37:14.439Z,6.74
2024-04-24T02:38:13.915Z,6.71
2024-04-24T02:39:13.879Z,6.74
2024-04-24T02:40:13.846Z,6.73
2024-04-24T02:41:13.874Z,6.86
2024-04-24T02:42:13.870Z,6.73
2024-04-24T02:43:13.866Z,6.85
2024-04-24T02:44:13.870Z,7.06
2024-04-24T02:45:13.840Z,7.04
2024-04-24T02:46:13.830Z,7.13
2024-04-24T02:47:13.887Z,6.99
2024-04-24T02:48:13.902Z,7.03
2024-04-24T02:49:13.812Z,6.93
2024-04-24T02:50:13.888Z,6.97
2024-04-24T02:51:13.804Z,6.92
2024-04-24T02:52:13.787Z,6.93
2024-04-24T02:53:13.821Z,7.19
2024-04-24T02:54:13.795Z,7.15
2024-04-24T02:55:13.785Z,7.04
2024-04-24T02:56:13.841Z,7.24
2024-04-24T02:57:13.774Z,7.29
2024-04-24T02:58:13.766Z,7.07
2024-04-24T02:59:13.900Z,7.21
2024-04-24T03:00:13.752Z,7.26
2024-04-24T03:01:13.745Z,7.19
2024-04-24T03:02:13.791Z,7.22
2024-04-24T03:03:13.888Z,7.07
2024-04-24T03:04:13.765Z,7.06
2024-04-24T03:05:13.777Z,6.93
2024-04-24T03:06:13.710Z,7.01
2024-04-24T03:07:13.715Z,7.03
2024-04-24T03:08:13.795Z,6.92
2024-04-24T03:09:13.710Z,6.85
2024-04-24T03:10:13.685Z,6.82
2024-04-24T03:11:13.727Z,6.75
2024-04-24T03:12:13.689Z,6.96
2024-04-24T03:13:13.678Z,6.91
2024-04-24T03:14:13.691Z,6.97
2024-04-24T03:15:13.659Z,7.04
2024-04-24T03:16:13.652Z,7.07
2024-04-24T03:17:13.683Z,7.06
2024-04-24T03:18:13.680Z,6.97
2024-04-24T03:19:13.656Z,6.99
2024-04-24T03:20:13.651Z,6.88
2024-04-24T03:21:13.624Z,6.99
2024-04-24T03:22:13.619Z,6.96
2024-04-24T03:23:13.657Z,7.00
2024-04-24T03:24:13.637Z,7.01
2024-04-24T03:25:13.611Z,6.93
2024-04-24T03:26:13.660Z,6.96
2024-04-24T03:27:13.611Z,6.97
2024-04-24T03:28:13.600Z,6.82
2024-04-24T03:29:13.615Z,6.86
2024-04-24T03:30:13.615Z,6.75
2024-04-24T03:31:13.589Z,6.88
2024-04-24T03:32:13.632Z,6.91
2024-04-24T03:33:13.696Z,6.97
2024-04-24T03:34:13.593Z,7.03
2024-04-24T03:35:13.583Z,7.04
2024-04-24T03:36:13.567Z,6.99
2024-04-24T03:37:13.556Z,6.82
2024-04-24T03:38:13.590Z,6.67
2024-04-24T03:39:13.555Z,6.82
2024-04-24T03:40:13.557Z,6.78
2024-04-24T03:41:13.592Z,6.64
2024-04-24T03:42:13.552Z,6.63
2024-04-24T03:43:14.401Z,6.78
2024-04-24T03:44:13.646Z,6.67
2024-04-24T03:45:13.510Z,6.79
2024-04-24T03:46:13.508Z,6.78
2024-04-24T03:47:13.562Z,6.83
2024-04-24T03:48:13.628Z,6.82
2024-04-24T03:49:13.520Z,6.83
2024-04-24T03:50:13.578Z,6.92
2024-04-24T03:51:13.499Z,6.96
2024-04-24T03:52:13.458Z,6.78
2024-04-24T03:53:13.503Z,6.73
2024-04-24T03:54:13.470Z,6.73
2024-04-24T03:55:13.468Z,6.65
2024-04-24T03:56:13.510Z,6.46
2024-04-24T03:57:13.466Z,6.55
2024-04-24T03:58:46.489Z,6.47
2024-04-24T03:59:13.502Z,6.46
2024-04-24T04:00:13.444Z,6.64
2024-04-24T04:01:13.486Z,6.63
2024-04-24T04:02:13.465Z,6.67
2024-04-24T04:03:13.477Z,6.71
2024-04-24T04:04:13.472Z,6.83
2024-04-24T04:05:13.454Z,6.79
2024-04-24T04:06:13.426Z,6.56
2024-04-24T04:07:13.389Z,6.50
2024-04-24T04:08:13.464Z,6.43
2024-04-24T04:09:13.408Z,6.61
2024-04-24T04:10:13.389Z,6.53
2024-04-24T04:11:13.425Z,6.63
2024-04-24T04:12:13.763Z,6.56
2024-04-24T04:13:13.367Z,6.65
2024-04-24T04:14:13.400Z,6.61
2024-04-24T04:15:13.354Z,6.83
2024-04-24T04:16:13.333Z,6.83
2024-04-24T04:17:13.453Z,7.04
2024-04-24T04:18:13.454Z,6.92
2024-04-24T04:19:13.342Z,6.99
2024-04-24T04:20:13.364Z,6.99
2024-04-24T04:21:13.321Z,6.81
2024-04-24T04:22:13.309Z,6.74
2024-04-24T04:23:13.332Z,6.74
2024-04-24T04:24:13.277Z,6.75
2024-04-24T04:25:13.309Z,6.68
2024-04-24T04:26:13.317Z,6.70
2024-04-24T04:27:13.294Z,6.71
2024-04-24T04:28:13.281Z,6.63
2024-04-24T04:29:13.308Z,6.57
2024-04-24T04:30:13.284Z,6.60
2024-04-24T04:31:13.269Z,6.64
2024-04-24T04:32:13.340Z,6.60
2024-04-24T04:33:13.292Z,6.71
2024-04-24T04:34:13.242Z,6.71
2024-04-24T04:35:13.313Z,6.65
2024-04-24T04:36:13.229Z,6.70
2024-04-24T04:37:13.225Z,6.75
2024-04-24T04:38:13.292Z,6.83
2024-04-24T04:39:13.316Z,6.73
2024-04-24T04:40:13.228Z,6.75
2024-04-24T04:41:13.287Z,6.68
2024-04-24T04:42:13.197Z,6.75
2024-04-24T04:43:13.191Z,6.65
2024-04-24T04:44:13.247Z,6.60
2024-04-24T04:45:13.213Z,6.53
2024-04-24T04:46:13.179Z,6.65
2024-04-24T04:47:13.301Z,6.60
2024-04-24T04:48:13.301Z,6.64
2024-04-24T04:49:13.153Z,6.64
2024-04-24T04:50:13.326Z,6.73
2024-04-24T04:51:13.179Z,6.68
2024-04-24T04:52:13.156Z,6.73
2024-04-24T04:53:13.190Z,6.78
2024-04-24T04:54:13.195Z,6.93
2024-04-24T04:55:13.166Z,6.89
2024-04-24T04:56:13.137Z,6.91
2024-04-24T04:57:13.135Z,6.93
2024-04-24T04:58:13.167Z,6.73
2024-04-24T04:59:13.142Z,6.43
2024-04-24T05:00:13.124Z,6.25
2024-04-24T05:01:13.175Z,6.31
2024-04-24T05:02:13.134Z,6.34
2024-04-24T05:03:13.133Z,6.03
2024-04-24T05:04:13.108Z,5.88
2024-04-24T05:05:13.122Z,5.79
2024-04-24T05:06:13.070Z,5.69
2024-04-24T05:07:13.095Z,5.66
2024-04-24T05:08:13.142Z,5.61
2024-04-24T05:09:13.052Z,5.85
2024-04-24T05:10:13.087Z,5.90
2024-04-24T05:11:13.301Z,5.80
2024-04-24T05:12:13.067Z,5.94
2024-04-24T05:13:13.050Z,6.05
2024-04-24T05:14:13.116Z,6.09
2024-04-24T05:15:13.055Z,6.18
2024-04-24T05:16:13.040Z,6.19
2024-04-24T05:17:13.185Z,6.28
2024-04-24T05:18:13.177Z,6.38
2024-04-24T05:19:13.070Z,6.46
2024-04-24T05:20:13.068Z,6.57
2024-04-24T05:21:13.079Z,6.40
2024-04-24T05:22:13.005Z,6.46
2024-04-24T05:23:12.998Z,6.50
2024-04-24T05:24:13.990Z,6.47
2024-04-24T05:25:13.191Z,6.57
2024-04-24T05:26:13.009Z,6.53
2024-04-24T05:27:12.971Z,6.68
2024-04-24T05:28:12.942Z,6.61
2024-04-24T05:29:13.065Z,6.56
2024-04-24T05:30:12.942Z,6.60
2024-04-24T05:31:12.956Z,6.67
2024-04-24T05:32:12.985Z,6.79
2024-04-24T05:33:12.994Z,6.82
2024-04-24T05:34:12.970Z,6.96
2024-04-24T05:35:12.952Z,7.03
2024-04-24T05:36:12.908Z,7.03
2024-04-24T05:37:13.697Z,6.88
2024-04-24T05:38:12.993Z,6.74
2024-04-24T05:39:12.888Z,6.82
2024-04-24T05:40:12.930Z,6.75
2024-04-24T05:41:12.930Z,7.01
2024-04-24T05:42:12.894Z,6.97
2024-04-24T05:43:16.159Z,6.99
2024-04-24T05:44:14.103Z,7.00
2024-04-24T05:45:12.877Z,6.96
2024-04-24T05:46:12.878Z,6.89
2024-04-24T05:47:12.877Z,6.85
2024-04-24T05:48:12.937Z,6.71
2024-04-24T05:49:13.880Z,6.74
2024-04-24T05:50:12.918Z,6.82
2024-04-24T05:51:12.874Z,6.96
2024-04-24T05:52:12.835Z,6.82
2024-04-24T05:53:12.860Z,6.88
2024-04-24T05:54:12.838Z,6.81
2024-04-24T05:55:12.842Z,6.78
2024-04-24T05:56:12.871Z,6.70
2024-04-24T05:57:12.828Z,6.75
2024-04-24T05:58:12.821Z,6.79
2024-04-24T05:59:13.966Z,6.82
2024-04-24T06:00:12.794Z,6.99
2024-04-24T06:01:12.899Z,7.01
2024-04-24T06:02:12.806Z,7.00
2024-04-24T06:03:12.784Z,7.06
2024-04-24T06:04:12.817Z,7.10
2024-04-24T06:05:12.800Z,7.15
2024-04-24T06:06:12.796Z,7.13
2024-04-24T06:07:12.868Z,7.31
2024-04-24T06:08:12.747Z,7.21
2024-04-24T06:09:12.737Z,7.13
2024-04-24T06:10:12.782Z,7.31
2024-04-24T06:11:12.770Z,7.18
2024-04-24T06:12:12.791Z,7.36
2024-04-24T06:13:12.766Z,7.26
2024-04-24T06:14:12.761Z,7.31
2024-04-24T06:15:12.712Z,7.28
2024-04-24T06:16:13.805Z,7.43
2024-04-24T06:17:12.949Z,7.44
2024-04-24T06:18:12.823Z,7.39
2024-04-24T06:19:12.727Z,7.54
2024-04-24T06:20:12.747Z,7.44
2024-04-24T06:21:12.698Z,7.31
2024-04-24T06:22:12.694Z,7.24
2024-04-24T06:23:12.754Z,7.24
2024-04-24T06:24:12.944Z,7.28
2024-04-24T06:25:12.683Z,7.28
2024-04-24T06:26:12.682Z,7.25
2024-04-24T06:27:12.645Z,7.21
2024-04-24T06:28:12.672Z,7.18
2024-04-24T06:29:12.687Z,7.26
2024-04-24T06:30:12.650Z,6.96
2024-04-24T06:31:12.639Z,7.21
2024-04-24T06:32:12.780Z,7.22
2024-04-24T06:33:12.731Z,7.31
2024-04-24T06:34:12.810Z,7.25
2024-04-24T06:35:12.641Z,7.34
2024-04-24T06:36:12.610Z,7.31
2024-04-24T06:37:12.599Z,7.25
2024-04-24T06:38:12.639Z,7.54
2024-04-24T06:39:12.655Z,7.58
2024-04-24T06:40:12.593Z,7.73
2024-04-24T06:41:14.936Z,7.69
2024-04-24T06:42:12.574Z,7.55
2024-04-24T06:43:12.575Z,7.33
2024-04-24T06:44:12.611Z,7.46
2024-04-24T06:45:12.607Z,7.54
2024-04-24T06:46:12.552Z,7.57
2024-04-24T06:47:12.623Z,7.60
2024-04-24T06:48:12.570Z,7.74
2024-04-24T06:49:12.549Z,7.77
2024-04-24T06:50:12.774Z,7.78
2024-04-24T06:51:12.556Z,7.61
2024-04-24T06:52:12.529Z,7.39
2024-04-24T06:53:12.543Z,7.31
2024-04-24T06:54:12.516Z,7.46
2024-04-24T06:55:12.513Z,7.50
2024-04-24T06:56:12.666Z,7.52
2024-04-24T06:57:12.503Z,7.52
2024-04-24T06:58:12.527Z,7.40
2024-04-24T06:59:12.513Z,7.37
2024-04-24T07:00:12.488Z,7.22
2024-04-24T07:01:12.651Z,7.34
2024-04-24T07:02:12.534Z,7.40
2024-04-24T07:03:12.464Z,7.36
2024-04-24T07:04:12.452Z,7.46
2024-04-24T07:05:12.519Z,7.46
2024-04-24T07:06:12.467Z,7.47
2024-04-24T07:07:12.469Z,7.55
2024-04-24T07:08:12.484Z,7.29
2024-04-24T07:09:12.438Z,7.33
2024-04-24T07:10:12.429Z,7.57
2024-04-24T07:11:12.469Z,7.52
2024-04-24T07:12:12.418Z,7.60
2024-04-24T07:13:12.494Z,7.84
2024-04-24T07:14:12.472Z,7.83
2024-04-24T07:15:12.411Z,7.66
2024-04-24T07:16:12.393Z,7.52
2024-04-24T07:17:12.466Z,7.76
2024-04-24T07:18:12.466Z,7.91
2024-04-24T07:19:14.817Z,8.04
2024-04-24T07:20:12.394Z,8.20
2024-04-24T07:21:12.385Z,8.37
2024-04-24T07:22:12.380Z,8.44
2024-04-24T07:23:12.370Z,8.62
2024-04-24T07:24:12.359Z,8.74
2024-04-24T07:25:12.352Z,8.95
2024-04-24T07:26:12.374Z,8.95
2024-04-24T07:27:14.499Z,9.04
2024-04-24T07:28:12.333Z,8.92
2024-04-24T07:29:12.362Z,8.86
2024-04-24T07:30:12.371Z,8.70
2024-04-24T07:31:12.336Z,8.74
2024-04-24T07:32:12.330Z,8.80
2024-04-24T07:33:12.458Z,8.63
2024-04-24T07:34:12.352Z,8.56
2024-04-24T07:35:12.336Z,8.49
2024-04-24T07:36:12.287Z,8.42
2024-04-24T07:37:12.308Z,8.37
2024-04-24T07:38:12.356Z,8.24
2024-04-24T07:39:12.870Z,8.26
2024-04-24T07:40:12.276Z,8.16
2024-04-24T07:41:12.370Z,8.10
2024-04-24T07:42:12.283Z,8.04
2024-04-24T07:43:12.278Z,8.09
2024-04-24T07:44:12.342Z,8.24
2024-04-24T07:45:12.255Z,8.24
2024-04-24T07:46:12.238Z,8.32
2024-04-24T07:47:12.389Z,8.35
2024-04-24T07:48:12.472Z,8.52
2024-04-24T07:49:12.222Z,8.46
2024-04-24T07:50:12.261Z,8.62
2024-04-24T07:51:12.439Z,8.71
2024-04-24T07:52:12.272Z,8.78
2024-04-24T07:53:12.275Z,8.90
2024-04-24T07:54:12.234Z,9.12
2024-04-24T07:55:12.191Z,9.41
2024-04-24T07:56:12.223Z,9.47
2024-04-24T07:57:12.211Z,9.51
2024-04-24T07:58:12.199Z,9.50
2024-04-24T07:59:12.206Z,9.48
2024-04-24T08:00:12.229Z,9.52
2024-04-24T08:01:12.180Z,9.52
2024-04-24T08:02:12.276Z,9.47
2024-04-24T08:03:12.156Z,9.48
2024-04-24T08:04:12.205Z,9.30
2024-04-24T08:05:12.212Z,9.42
2024-04-24T08:06:12.140Z,9.33
2024-04-24T08:07:12.169Z,9.22
2024-04-24T08:08:12.144Z,9.30
2024-04-24T08:09:12.134Z,9.42
2024-04-24T08:10:12.142Z,9.57
2024-04-24T08:11:12.191Z,9.72
2024-04-24T08:12:12.234Z,9.69
2024-04-24T08:13:12.108Z,9.47
2024-04-24T08:14:12.150Z,9.34
2024-04-24T08:15:12.086Z,9.32
2024-04-24T08:16:12.125Z,9.44
2024-04-24T08:17:12.248Z,9.30
2024-04-24T08:18:12.134Z,9.36
2024-04-24T08:19:12.074Z,9.24
2024-04-24T08:20:12.125Z,9.04
2024-04-24T08:21:12.091Z,8.98
2024-04-24T08:22:12.118Z,9.01
2024-04-24T08:23:15.362Z,9.03
2024-04-24T08:24:13.047Z,9.03
2024-04-24T08:25:12.035Z,9.09
2024-04-24T08:26:12.069Z,8.96
2024-04-24T08:27:13.145Z,9.09
2024-04-24T08:28:15.179Z,8.99
2024-04-24T08:29:13.059Z,9.04
2024-04-24T08:30:12.034Z,9.04
2024-04-24T08:31:12.009Z,8.86
2024-04-24T08:32:12.079Z,8.90
2024-04-24T08:33:12.107Z,8.89
2024-04-24T08:34:11.995Z,8.96
2024-04-24T08:35:12.996Z,8.95
2024-04-24T08:36:12.020Z,8.93
2024-04-24T08:37:11.993Z,9.01
2024-04-24T08:38:12.052Z,9.12
2024-04-24T08:39:11.965Z,9.24
2024-04-24T08:40:11.970Z,9.15
2024-04-24T08:41:11.978Z,9.06
2024-04-24T08:42:11.966Z,9.15
2024-04-24T08:43:11.961Z,9.11
2024-04-24T08:44:11.976Z,9.06
2024-04-24T08:45:11.943Z,9.08
2024-04-24T08:46:12.105Z,9.23
2024-04-24T08:47:11.956Z,9.14
2024-04-24T08:48:14.350Z,9.19
2024-04-24T08:49:12.663Z,9.30
2024-04-24T08:50:11.931Z,9.44
2024-04-24T08:51:11.949Z,9.50
2024-04-24T08:52:11.893Z,9.57
2024-04-24T08:53:11.956Z,9.60
2024-04-24T08:54:11.883Z,9.65
2024-04-24T08:55:11.985Z,9.47
2024-04-24T08:56:11.925Z,9.34
2024-04-24T08:57:11.896Z,9.40
2024-04-24T08:58:11.985Z,9.36
2024-04-24T08:59:11.898Z,9.24
2024-04-24T09:00:11.871Z,9.03
2024-04-24T09:01:11.955Z,8.99
2024-04-24T09:02:12.124Z,8.96
2024-04-24T09:03:11.979Z,9.12
2024-04-24T09:04:11.989Z,9.16
2024-04-24T09:05:11.915Z,9.45
2024-04-24T09:06:11.869Z,9.67
2024-04-24T09:07:11.848Z,9.80
2024-04-24T09:08:11.881Z,9.77
2024-04-24T09:09:11.856Z,9.50
2024-04-24T09:10:11.833Z,9.67
2024-04-24T09:11:11.835Z,10.43
2024-04-24T09:12:11.832Z,10.83
2024-04-24T09:13:14.561Z,10.90
2024-04-24T09:14:12.917Z,11.13
2024-04-24T09:15:11.804Z,11.52
2024-04-24T09:16:11.835Z,11.12
2024-04-24T09:17:11.903Z,10.87
2024-04-24T09:18:11.970Z,10.91
2024-04-24T09:19:11.809Z,10.78
2024-04-24T09:20:11.998Z,10.62
2024-04-24T09:21:11.792Z,10.39
2024-04-24T09:22:11.783Z,10.31
2024-04-24T09:23:11.862Z,10.31
2024-04-24T09:24:11.866Z,10.21
2024-04-24T09:25:11.768Z,10.08
2024-04-24T09:26:11.797Z,9.99
2024-04-24T09:27:11.755Z,9.85
2024-04-24T09:28:11.747Z,9.70
2024-04-24T09:29:11.853Z,9.98
2024-04-24T09:30:11.820Z,10.10
2024-04-24T09:31:11.721Z,10.39
2024-04-24T09:32:12.472Z,10.62
2024-04-24T09:33:11.890Z,10.87
2024-04-24T09:34:11.734Z,11.04
2024-04-24T09:35:11.730Z,11.18
2024-04-24T09:36:11.753Z,11.48
2024-04-24T09:37:11.707Z,11.77
2024-04-24T09:38:11.732Z,12.17
2024-04-24T09:39:11.749Z,12.33
2024-04-24T09:40:11.707Z,12.40
2024-04-24T09:41:11.734Z,12.04
2024-04-24T09:42:11.681Z,12.10
2024-04-24T09:43:11.704Z,11.97
2024-04-24T09:44:11.768Z,12.03
2024-04-24T09:45:11.681Z,11.76
2024-04-24T09:46:11.688Z,11.76
2024-04-24T09:47:11.673Z,11.55
2024-04-24T09:48:11.803Z,11.37
2024-04-24T09:49:11.730Z,11.25
2024-04-24T09:50:11.696Z,11.01
2024-04-24T09:51:11.934Z,10.82
2024-04-24T09:52:11.638Z,10.58
2024-04-24T09:53:11.665Z,10.20
2024-04-24T09:54:11.967Z,9.83
2024-04-24T09:55:11.641Z,9.55
2024-04-24T09:56:11.670Z,9.24
2024-04-24T09:57:11.660Z,9.08
2024-04-24T09:58:20.494Z,8.92
2024-04-24T09:59:11.662Z,8.98
2024-04-24T10:00:11.619Z,8.92
2024-04-24T10:01:11.657Z,8.90
2024-04-24T10:02:11.615Z,8.81
2024-04-24T10:03:11.604Z,8.65
2024-04-24T10:04:11.592Z,8.74
2024-04-24T10:05:11.684Z,8.62
2024-04-24T10:06:11.600Z,8.56
2024-04-24T10:07:14.216Z,8.70
2024-04-24T10:08:11.584Z,8.81
2024-04-24T10:09:11.570Z,9.14
2024-04-24T10:10:11.552Z,9.42
2024-04-24T10:11:11.631Z,9.57
2024-04-24T10:12:11.617Z,9.94
2024-04-24T10:13:11.544Z,10.14
2024-04-24T10:14:11.566Z,10.18
2024-04-24T10:15:11.569Z,10.12
2024-04-24T10:16:11.594Z,9.94
2024-04-24T10:17:11.553Z,9.98
2024-04-24T10:18:11.628Z,10.01
2024-04-24T10:19:11.539Z,10.16
2024-04-24T10:20:16.419Z,10.36
2024-04-24T10:21:13.635Z,10.67
2024-04-24T10:22:11.506Z,10.70
2024-04-24T10:23:11.560Z,10.93
2024-04-24T10:24:11.506Z,11.36
2024-04-24T10:25:11.493Z,11.74
2024-04-24T10:26:11.537Z,12.00
2024-04-24T10:27:11.475Z,12.15
2024-04-24T10:28:11.471Z,12.36
2024-04-24T10:29:11.494Z,12.58
2024-04-24T10:30:11.464Z,12.80
2024-04-24T10:31:11.481Z,12.86
2024-04-24T10:32:11.499Z,13.08
2024-04-24T10:33:11.623Z,13.29
2024-04-24T10:34:11.477Z,13.53
2024-04-24T10:35:11.455Z,13.65
2024-04-24T10:36:11.439Z,14.05
2024-04-24T10:37:11.445Z,14.13
2024-04-24T10:38:11.439Z,14.28
2024-04-24T10:39:11.453Z,14.44
2024-04-24T10:40:14.771Z,14.38
2024-04-24T10:41:12.457Z,14.28
2024-04-24T10:42:11.406Z,14.37
2024-04-24T10:43:11.398Z,14.13
2024-04-24T10:44:11.459Z,13.97
2024-04-24T10:45:11.407Z,13.98
2024-04-24T10:46:11.386Z,14.03
2024-04-24T10:47:11.437Z,13.68
2024-04-24T10:48:11.428Z,13.38
2024-04-24T10:49:11.387Z,13.17
2024-04-24T10:50:11.410Z,12.84
2024-04-24T10:51:11.380Z,13.01
2024-04-24T10:52:11.373Z,12.86
2024-04-24T10:53:11.387Z,12.81
2024-04-24T10:54:11.392Z,12.68
2024-04-24T10:55:12.678Z,12.48
2024-04-24T10:56:12.371Z,12.30
2024-04-24T10:57:11.331Z,12.18
2024-04-24T10:58:11.347Z,12.32
2024-04-24T10:59:11.417Z,12.21
2024-04-24T11:00:11.348Z,12.05
2024-04-24T11:01:11.353Z,12.00
2024-04-24T11:02:11.358Z,12.08
2024-04-24T11:03:11.417Z,12.26
2024-04-24T11:04:11.339Z,11.96
2024-04-24T11:05:11.357Z,11.62
2024-04-24T11:06:11.302Z,11.38
2024-04-24T11:07:15.907Z,11.64
2024-04-24T11:08:13.393Z,11.82
2024-04-24T11:09:11.323Z,11.80
2024-04-24T11:10:11.296Z,12.22
2024-04-24T11:11:11.365Z,12.55
2024-04-24T11:12:11.291Z,12.68
2024-04-24T11:13:11.256Z,12.61
2024-04-24T11:14:14.607Z,12.33
2024-04-24T11:15:11.271Z,12.04
2024-04-24T11:16:11.595Z,12.15
2024-04-24T11:17:11.301Z,12.29
2024-04-24T11:18:11.296Z,12.21
2024-04-24T11:19:11.254Z,12.03
2024-04-24T11:20:11.315Z,11.93
2024-04-24T11:21:11.221Z,11.74
2024-04-24T11:22:11.204Z,11.56
2024-04-24T11:23:11.218Z,11.59
2024-04-24T11:24:11.276Z,11.58
2024-04-24T11:25:11.228Z,11.19
2024-04-24T11:26:11.245Z,11.11
2024-04-24T11:27:11.191Z,11.05
2024-04-24T11:28:11.196Z,10.85
2024-04-24T11:29:11.251Z,10.75
2024-04-24T11:30:11.181Z,10.60
2024-04-24T11:31:11.381Z,10.39
2024-04-24T11:32:11.352Z,10.34
2024-04-24T11:33:11.242Z,10.17
2024-04-24T11:34:11.231Z,10.05
2024-04-24T11:35:11.218Z,9.96
2024-04-24T11:36:11.153Z,9.67
2024-04-24T11:37:11.136Z,9.55
2024-04-24T11:38:11.136Z,9.45
2024-04-24T11:39:11.111Z,9.03
2024-04-24T11:40:11.144Z,9.14
2024-04-24T11:41:11.165Z,9.09
2024-04-24T11:42:11.125Z,9.51
2024-04-24T11:43:11.112Z,10.31
2024-04-24T11:44:11.178Z,10.49
2024-04-24T11:45:11.116Z,10.79
2024-04-24T11:46:11.116Z,10.91
2024-04-24T11:47:11.115Z,11.28
2024-04-24T11:48:11.250Z,11.30
2024-04-24T11:49:11.160Z,11.93
2024-04-24T11:50:11.111Z,12.65
2024-04-24T11:51:11.200Z,13.75
2024-04-24T11:52:11.070Z,14.99
2024-04-24T11:53:11.155Z,15.01
2024-04-24T11:54:11.065Z,15.20
2024-04-24T11:55:11.110Z,16.28
2024-04-24T11:56:11.066Z,16.64
2024-04-24T11:57:11.070Z,16.08
2024-04-24T11:58:11.063Z,15.63
2024-04-24T11:59:11.057Z,14.92
2024-04-24T12:00:11.055Z,14.59
2024-04-24T12:01:11.064Z,13.94
2024-04-24T12:02:11.109Z,13.14
2024-04-24T12:03:11.254Z,12.61
2024-04-24T12:04:11.038Z,12.38
2024-04-24T12:05:11.041Z,12.17
2024-04-24T12:06:11.006Z,11.87
2024-04-24T12:07:11.058Z,11.59
2024-04-24T12:08:11.007Z,11.13
2024-04-24T12:09:10.975Z,10.83
2024-04-24T12:10:11.025Z,10.34
2024-04-24T12:11:11.037Z,9.96
2024-04-24T12:12:11.058Z,9.70
2024-04-24T12:13:10.996Z,9.47
2024-04-24T12:14:11.067Z,9.37
2024-04-24T12:15:10.968Z,9.22
2024-04-24T12:16:11.004Z,9.12
2024-04-24T12:17:10.983Z,9.29
2024-04-24T12:18:11.017Z,9.47
2024-04-24T12:19:10.965Z,9.66
2024-04-24T12:20:11.020Z,9.78
2024-04-24T12:21:10.944Z,9.88
2024-04-24T12:22:10.934Z,10.05
2024-04-24T12:23:10.981Z,10.78
2024-04-24T12:24:10.940Z,11.80
2024-04-24T12:25:10.929Z,12.35
2024-04-24T12:26:10.954Z,13.05
2024-04-24T12:27:10.919Z,13.53
2024-04-24T12:28:10.936Z,13.83
2024-04-24T12:29:10.921Z,14.00
2024-04-24T12:30:10.937Z,14.11
2024-04-24T12:31:10.899Z,14.19
2024-04-24T12:32:10.964Z,14.13
2024-04-24T12:33:10.943Z,13.96
2024-04-24T12:34:11.002Z,13.55
2024-04-24T12:35:10.920Z,13.38
2024-04-24T12:36:11.535Z,13.47
2024-04-24T12:37:10.862Z,13.43
2024-04-24T12:38:10.902Z,13.68
2024-04-24T12:39:10.978Z,13.57
2024-04-24T12:40:10.929Z,13.51
2024-04-24T12:41:10.926Z,13.51
2024-04-24T12:42:11.676Z,13.57
2024-04-24T12:43:10.864Z,13.76
2024-04-24T12:44:10.898Z,14.19
2024-04-24T12:45:10.848Z,14.69
2024-04-24T12:46:10.809Z,15.05
2024-04-24T12:47:10.836Z,15.40
2024-04-24T12:48:10.927Z,16.28
2024-04-24T12:49:10.804Z,16.91
2024-04-24T12:50:10.911Z,16.83
2024-04-24T12:51:10.810Z,17.19
2024-04-24T12:52:10.780Z,17.81
2024-04-24T12:53:11.843Z,17.66
2024-04-24T12:54:10.795Z,16.82
2024-04-24T12:55:10.798Z,16.80
2024-04-24T12:56:10.810Z,16.58
2024-04-24T12:57:10.762Z,16.21
2024-04-24T12:58:10.785Z,15.85
2024-04-24T12:59:10.801Z,15.93
2024-04-24T13:00:10.759Z,15.78
2024-04-24T13:01:10.818Z,15.41
2024-04-24T13:02:10.779Z,15.48
2024-04-24T13:03:10.908Z,15.59
2024-04-24T13:04:10.893Z,15.40
2024-04-24T13:05:10.746Z,14.93
2024-04-24T13:06:10.766Z,14.49
2024-04-24T13:07:10.780Z,14.33
2024-04-24T13:08:10.808Z,14.03
2024-04-24T13:09:10.731Z,14.12
2024-04-24T13:10:10.731Z,14.03
2024-04-24T13:11:10.809Z,14.26